createdAt,value
2018-07-27T00:00:20.824Z,20.63
2018-07-27T00:01:20.816Z,20.71
2018-07-27T00:02:20.798Z,20.63
2018-07-27T00:03:20.798Z,20.70
2018-07-27T00:04:21.161Z,20.70
2018-07-27T00:05:20.769Z,20.71
2018-07-27T00:06:20.753Z,20.68
2018-07-27T00:07:20.751Z,20.73
2018-07-27T00:08:20.735Z,20.64
2018-07-27T00:09:20.722Z,20.65
2018-07-27T00:10:20.745Z,20.74
2018-07-27T00:11:20.698Z,20.73
2018-07-27T00:12:20.689Z,20.73
2018-07-27T00:13:20.682Z,20.68
2018-07-27T00:14:20.666Z,20.68
2018-07-27T00:15:20.693Z,20.63
2018-07-27T00:16:20.648Z,20.63
2018-07-27T00:17:20.634Z,20.63
2018-07-27T00:18:20.624Z,20.58
2018-07-27T00:19:20.621Z,20.63
2018-07-27T00:20:20.647Z,20.61
2018-07-27T00:21:20.590Z,20.53
2018-07-27T00:22:20.579Z,20.52
2018-07-27T00:23:20.567Z,20.50
2018-07-27T00:24:20.568Z,20.56
2018-07-27T00:25:20.550Z,20.49
2018-07-27T00:26:20.922Z,20.52
2018-07-27T00:27:20.520Z,20.55
2018-07-27T00:28:20.513Z,20.49
2018-07-27T00:29:20.499Z,20.55
2018-07-27T00:30:20.490Z,20.53
2018-07-27T00:31:20.483Z,20.46
2018-07-27T00:32:20.505Z,20.55
2018-07-27T00:33:20.462Z,20.55
2018-07-27T00:34:20.444Z,20.49
2018-07-27T00:35:20.438Z,20.48
2018-07-27T00:36:20.424Z,20.48
2018-07-27T00:37:20.513Z,20.46
2018-07-27T00:38:20.408Z,20.41
2018-07-27T00:39:20.393Z,20.49
2018-07-27T00:40:20.378Z,20.48
2018-07-27T00:41:20.369Z,20.46
2018-07-27T00:42:20.361Z,20.41
2018-07-27T00:43:20.380Z,20.52
2018-07-27T00:44:20.338Z,20.41
2018-07-27T00:45:20.327Z,20.41
2018-07-27T00:46:20.316Z,20.46
2018-07-27T00:47:20.303Z,20.39
2018-07-27T00:48:20.324Z,20.49
2018-07-27T00:49:20.293Z,20.39
2018-07-27T00:50:20.269Z,20.46
2018-07-27T00:51:20.257Z,20.49
2018-07-27T00:52:20.245Z,20.53
2018-07-27T00:53:20.290Z,20.50
2018-07-27T00:54:20.225Z,20.46
2018-07-27T00:55:20.220Z,20.41
2018-07-27T00:56:20.206Z,20.42
2018-07-27T00:57:20.192Z,20.42
2018-07-27T00:58:20.183Z,20.49
2018-07-27T00:59:20.364Z,20.48
2018-07-27T01:00:20.160Z,20.49
2018-07-27T01:01:20.157Z,20.53
2018-07-27T01:02:20.142Z,20.55
2018-07-27T01:03:20.129Z,20.61
2018-07-27T01:04:20.117Z,20.61
2018-07-27T01:05:20.137Z,20.65
2018-07-27T01:06:20.094Z,20.65
2018-07-27T01:07:20.088Z,20.67
2018-07-27T01:08:20.089Z,20.65
2018-07-27T01:09:20.062Z,20.63
2018-07-27T01:10:20.090Z,20.71
2018-07-27T01:11:20.038Z,20.65
2018-07-27T01:12:20.031Z,20.65
2018-07-27T01:13:20.018Z,20.73
2018-07-27T01:14:20.007Z,20.73
2018-07-27T01:15:20.053Z,20.74
2018-07-27T01:16:19.989Z,20.74
2018-07-27T01:17:19.978Z,20.71
2018-07-27T01:18:19.967Z,20.71
2018-07-27T01:19:19.959Z,20.71
2018-07-27T01:20:19.947Z,20.75
2018-07-27T01:21:19.985Z,20.74
2018-07-27T01:22:19.942Z,20.77
2018-07-27T01:23:19.908Z,20.75
2018-07-27T01:24:19.906Z,20.80
2018-07-27T01:25:19.895Z,20.88
2018-07-27T01:26:19.876Z,20.93
2018-07-27T01:27:19.908Z,20.95
2018-07-27T01:28:19.866Z,20.92
2018-07-27T01:29:19.846Z,20.92
2018-07-27T01:30:19.847Z,20.86
2018-07-27T01:31:19.841Z,21.04
2018-07-27T01:32:19.854Z,21.00
2018-07-27T01:33:19.813Z,20.98
2018-07-27T01:34:19.813Z,20.95
2018-07-27T01:35:19.782Z,20.98
2018-07-27T01:36:20.460Z,21.00
2018-07-27T01:37:19.801Z,21.00
2018-07-27T01:38:19.751Z,20.95
2018-07-27T01:39:19.742Z,20.93
2018-07-27T01:40:19.757Z,20.98
2018-07-27T01:41:19.721Z,20.95
2018-07-27T01:42:19.722Z,20.95
2018-07-27T01:43:19.738Z,21.01
2018-07-27T01:44:19.688Z,20.95
2018-07-27T01:45:19.687Z,20.97
2018-07-27T01:46:19.693Z,20.95
2018-07-27T01:47:19.656Z,20.98
2018-07-27T01:48:19.665Z,21.01
2018-07-27T01:49:19.671Z,21.01
2018-07-27T01:50:19.634Z,20.93
2018-07-27T01:51:19.624Z,21.00
2018-07-27T01:52:19.611Z,21.01
2018-07-27T01:53:19.597Z,21.01
2018-07-27T01:54:19.795Z,21.03
2018-07-27T01:55:19.574Z,21.01
2018-07-27T01:56:19.557Z,20.97
2018-07-27T01:57:19.548Z,21.08
2018-07-27T01:58:19.540Z,21.00
2018-07-27T01:59:19.527Z,21.01
2018-07-27T02:00:19.556Z,21.00
2018-07-27T02:01:19.507Z,20.97
2018-07-27T02:02:19.504Z,21.03
2018-07-27T02:03:19.496Z,20.98
2018-07-27T02:04:19.483Z,20.95
2018-07-27T02:05:19.516Z,21.01
2018-07-27T02:06:19.480Z,21.01
2018-07-27T02:07:19.451Z,21.03
2018-07-27T02:08:19.639Z,20.98
2018-07-27T02:09:20.204Z,21.01
2018-07-27T02:10:19.406Z,21.00
2018-07-27T02:11:19.440Z,20.88
2018-07-27T02:12:19.386Z,21.01
2018-07-27T02:13:19.378Z,21.07
2018-07-27T02:14:19.366Z,20.98
2018-07-27T02:15:19.357Z,21.05
2018-07-27T02:16:19.345Z,20.89
2018-07-27T02:17:19.365Z,21.00
2018-07-27T02:18:19.326Z,20.92
2018-07-27T02:19:19.311Z,20.86
2018-07-27T02:20:19.300Z,20.89
2018-07-27T02:21:19.293Z,20.89
2018-07-27T02:22:19.312Z,20.93
2018-07-27T02:23:19.276Z,20.92
2018-07-27T02:24:19.257Z,20.95
2018-07-27T02:25:19.245Z,20.90
2018-07-27T02:26:19.236Z,20.97
2018-07-27T02:27:19.607Z,21.01
2018-07-27T02:28:19.217Z,21.00
2018-07-27T02:29:19.214Z,20.95
2018-07-27T02:30:19.194Z,20.86
2018-07-27T02:31:19.182Z,20.93
2018-07-27T02:32:19.183Z,21.03
2018-07-27T02:33:19.353Z,21.01
2018-07-27T02:34:19.155Z,20.98
2018-07-27T02:35:19.150Z,20.89
2018-07-27T02:36:19.129Z,21.00
2018-07-27T02:37:19.117Z,20.95
2018-07-27T02:38:19.112Z,20.93
2018-07-27T02:39:19.130Z,20.92
2018-07-27T02:40:19.093Z,20.98
2018-07-27T02:41:19.075Z,20.89
2018-07-27T02:42:19.068Z,21.04
2018-07-27T02:43:19.062Z,20.98
2018-07-27T02:44:19.091Z,21.01
2018-07-27T02:45:19.032Z,20.90
2018-07-27T02:46:19.032Z,21.01
2018-07-27T02:47:19.009Z,21.00
2018-07-27T02:48:19.001Z,20.89
2018-07-27T02:49:19.041Z,20.92
2018-07-27T02:50:18.981Z,20.79
2018-07-27T02:51:18.977Z,20.75
2018-07-27T02:52:18.966Z,20.80
2018-07-27T02:53:18.947Z,20.73
2018-07-27T02:54:18.934Z,20.68
2018-07-27T02:55:19.124Z,20.71
2018-07-27T02:56:18.914Z,20.71
2018-07-27T02:57:18.902Z,20.64
2018-07-27T02:58:18.900Z,20.61
2018-07-27T02:59:18.913Z,20.56
2018-07-27T03:00:18.882Z,20.55
2018-07-27T03:01:18.890Z,20.49
2018-07-27T03:02:18.848Z,20.49
2018-07-27T03:03:18.840Z,20.48
2018-07-27T03:04:18.841Z,20.52
2018-07-27T03:05:18.815Z,20.44
2018-07-27T03:06:18.852Z,20.50
2018-07-27T03:07:18.808Z,20.49
2018-07-27T03:08:18.790Z,20.50
2018-07-27T03:09:18.775Z,20.46
2018-07-27T03:10:18.772Z,20.44
2018-07-27T03:11:18.798Z,20.46
2018-07-27T03:12:18.783Z,20.48
2018-07-27T03:13:18.749Z,20.48
2018-07-27T03:14:18.720Z,20.44
2018-07-27T03:15:18.714Z,20.48
2018-07-27T03:16:18.717Z,20.44
2018-07-27T03:17:18.739Z,20.49
2018-07-27T03:18:18.680Z,20.44
2018-07-27T03:19:18.684Z,20.46
2018-07-27T03:20:18.655Z,20.32
2018-07-27T03:21:18.648Z,20.34
2018-07-27T03:22:18.634Z,20.29
2018-07-27T03:23:18.993Z,20.26
2018-07-27T03:24:18.613Z,20.23
2018-07-27T03:25:18.606Z,20.19
2018-07-27T03:26:18.591Z,20.07
2018-07-27T03:27:18.594Z,20.07
2018-07-27T03:28:18.572Z,20.09
2018-07-27T03:29:18.602Z,20.09
2018-07-27T03:30:18.548Z,20.09
2018-07-27T03:31:18.543Z,20.09
2018-07-27T03:32:18.523Z,20.07
2018-07-27T03:33:18.522Z,20.05
2018-07-27T03:34:18.538Z,20.07
2018-07-27T03:35:18.494Z,20.07
2018-07-27T03:36:18.489Z,20.11
2018-07-27T03:37:18.470Z,20.07
2018-07-27T03:38:18.550Z,20.07
2018-07-27T03:39:18.481Z,20.07
2018-07-27T03:40:18.439Z,19.97
2018-07-27T03:41:18.426Z,20.05
2018-07-27T03:42:18.432Z,19.92
2018-07-27T03:43:18.403Z,20.02
2018-07-27T03:44:18.442Z,20.00
2018-07-27T03:45:18.396Z,19.94
2018-07-27T03:46:18.372Z,19.94
2018-07-27T03:47:18.369Z,19.99
2018-07-27T03:48:18.350Z,19.96
2018-07-27T03:49:18.341Z,20.02
2018-07-27T03:50:18.475Z,20.02
2018-07-27T03:51:18.318Z,19.93
2018-07-27T03:52:18.311Z,20.05
2018-07-27T03:53:18.298Z,19.96
2018-07-27T03:54:18.287Z,20.02
2018-07-27T03:55:18.284Z,19.93
2018-07-27T03:56:18.300Z,19.89
2018-07-27T03:57:18.255Z,19.97
2018-07-27T03:58:18.241Z,19.97
2018-07-27T03:59:18.236Z,19.97
2018-07-27T04:00:18.221Z,19.99
2018-07-27T04:01:18.253Z,19.97
2018-07-27T04:02:18.258Z,20.05
2018-07-27T04:03:18.203Z,19.97
2018-07-27T04:04:18.179Z,19.96
2018-07-27T04:05:18.176Z,20.07
2018-07-27T04:06:18.197Z,20.08
2018-07-27T04:07:18.182Z,20.05
2018-07-27T04:08:18.148Z,20.07
2018-07-27T04:09:18.122Z,20.09
2018-07-27T04:10:18.112Z,20.09
2018-07-27T04:11:18.100Z,20.05
2018-07-27T04:12:18.459Z,20.08
2018-07-27T04:13:18.077Z,20.19
2018-07-27T04:14:18.074Z,20.18
2018-07-27T04:15:18.054Z,20.25
2018-07-27T04:16:18.043Z,20.11
2018-07-27T04:17:18.035Z,20.22
2018-07-27T04:18:18.053Z,20.11
2018-07-27T04:19:18.016Z,20.17
2018-07-27T04:20:18.011Z,20.30
2018-07-27T04:21:17.991Z,20.26
2018-07-27T04:22:17.991Z,20.26
2018-07-27T04:23:18.184Z,20.29
2018-07-27T04:24:17.958Z,20.26
2018-07-27T04:25:17.951Z,20.29
2018-07-27T04:26:17.961Z,20.34
2018-07-27T04:27:17.926Z,20.27
2018-07-27T04:28:17.935Z,20.27
2018-07-27T04:29:17.938Z,20.37
2018-07-27T04:30:17.902Z,20.49
2018-07-27T04:31:17.888Z,20.50
2018-07-27T04:32:17.877Z,20.48
2018-07-27T04:33:17.866Z,20.44
2018-07-27T04:34:18.029Z,20.44
2018-07-27T04:35:17.838Z,20.48
2018-07-27T04:36:17.832Z,20.49
2018-07-27T04:37:17.822Z,20.41
2018-07-27T04:38:17.806Z,20.34
2018-07-27T04:39:17.797Z,20.46
2018-07-27T04:40:18.027Z,20.34
2018-07-27T04:41:17.773Z,20.33
2018-07-27T04:42:17.778Z,20.39
2018-07-27T04:43:17.753Z,20.42
2018-07-27T04:44:17.742Z,20.49
2018-07-27T04:45:17.741Z,20.37
2018-07-27T04:46:17.752Z,20.41
2018-07-27T04:47:17.711Z,20.41
2018-07-27T04:48:17.703Z,20.48
2018-07-27T04:49:17.739Z,20.49
2018-07-27T04:50:17.675Z,20.37
2018-07-27T04:51:17.713Z,20.50
2018-07-27T04:52:17.657Z,20.42
2018-07-27T04:53:17.649Z,20.46
2018-07-27T04:54:17.634Z,20.39
2018-07-27T04:55:17.630Z,20.41
2018-07-27T04:56:17.693Z,20.39
2018-07-27T04:57:17.660Z,20.50
2018-07-27T04:58:17.608Z,20.36
2018-07-27T04:59:17.581Z,20.50
2018-07-27T05:00:17.574Z,20.34
2018-07-27T05:01:17.558Z,20.36
2018-07-27T05:02:17.550Z,20.26
2018-07-27T05:03:17.572Z,20.26
2018-07-27T05:04:17.535Z,20.23
2018-07-27T05:05:17.524Z,20.34
2018-07-27T05:06:17.523Z,20.30
2018-07-27T05:07:17.499Z,20.37
2018-07-27T05:08:17.531Z,20.49
2018-07-27T05:09:17.475Z,20.44
2018-07-27T05:10:17.461Z,20.46
2018-07-27T05:11:17.451Z,20.41
2018-07-27T05:12:17.445Z,20.44
2018-07-27T05:13:17.465Z,20.41
2018-07-27T05:14:17.417Z,20.41
2018-07-27T05:15:17.413Z,20.33
2018-07-27T05:16:17.399Z,20.52
2018-07-27T05:17:17.388Z,20.42
2018-07-27T05:18:17.494Z,20.46
2018-07-27T05:19:17.364Z,20.41
2018-07-27T05:20:17.352Z,20.44
2018-07-27T05:21:17.349Z,20.55
2018-07-27T05:22:17.344Z,20.48
2018-07-27T05:23:17.370Z,20.37
2018-07-27T05:24:17.316Z,20.48
2018-07-27T05:25:17.302Z,20.48
2018-07-27T05:26:17.290Z,20.48
2018-07-27T05:27:17.287Z,20.49
2018-07-27T05:28:17.268Z,20.48
2018-07-27T05:29:17.304Z,20.48
2018-07-27T05:30:17.254Z,20.39
2018-07-27T05:31:17.251Z,20.44
2018-07-27T05:32:17.230Z,20.46
2018-07-27T05:33:17.214Z,20.52
2018-07-27T05:34:17.239Z,20.52
2018-07-27T05:35:17.223Z,20.52
2018-07-27T05:36:17.177Z,20.53
2018-07-27T05:37:17.169Z,20.53
2018-07-27T05:38:17.172Z,20.61
2018-07-27T05:39:17.159Z,20.64
2018-07-27T05:40:17.207Z,20.65
2018-07-27T05:41:17.128Z,20.63
2018-07-27T05:42:17.119Z,20.65
2018-07-27T05:43:17.109Z,20.73
2018-07-27T05:44:17.122Z,20.80
2018-07-27T05:45:17.108Z,20.90
2018-07-27T05:46:17.107Z,20.97
2018-07-27T05:47:17.066Z,20.95
2018-07-27T05:48:17.052Z,21.03
2018-07-27T05:49:17.046Z,21.00
2018-07-27T05:50:17.040Z,21.18
2018-07-27T05:51:17.093Z,21.20
2018-07-27T05:52:17.007Z,21.14
2018-07-27T05:53:16.997Z,21.25
2018-07-27T05:54:16.996Z,21.22
2018-07-27T05:55:16.981Z,21.18
2018-07-27T05:56:16.990Z,21.32
2018-07-27T05:57:17.137Z,21.22
2018-07-27T05:58:16.941Z,21.25
2018-07-27T05:59:16.986Z,21.28
2018-07-27T06:00:16.920Z,21.26
2018-07-27T06:01:16.956Z,21.34
2018-07-27T06:02:16.908Z,21.40
2018-07-27T06:03:16.928Z,21.44
2018-07-27T06:04:16.876Z,21.55
2018-07-27T06:05:16.878Z,21.58
2018-07-27T06:06:16.857Z,21.59
2018-07-27T06:07:16.846Z,21.69
2018-07-27T06:08:16.867Z,21.65
2018-07-27T06:09:16.821Z,21.65
2018-07-27T06:10:16.814Z,21.77
2018-07-27T06:11:16.848Z,21.78
2018-07-27T06:12:16.790Z,21.77
2018-07-27T06:13:17.146Z,21.84
2018-07-27T06:14:16.790Z,21.81
2018-07-27T06:15:16.759Z,21.84
2018-07-27T06:16:16.766Z,21.75
2018-07-27T06:17:16.763Z,21.80
2018-07-27T06:18:16.852Z,21.81
2018-07-27T06:19:16.900Z,21.82
2018-07-27T06:20:16.705Z,21.98
2018-07-27T06:21:16.693Z,21.96
2018-07-27T06:22:16.680Z,22.09
2018-07-27T06:23:16.669Z,21.96
2018-07-27T06:24:16.774Z,22.07
2018-07-27T06:25:16.683Z,22.13
2018-07-27T06:26:16.680Z,22.11
2018-07-27T06:27:16.624Z,22.15
2018-07-27T06:28:16.642Z,22.16
2018-07-27T06:29:16.623Z,22.19
2018-07-27T06:30:16.633Z,22.19
2018-07-27T06:31:16.592Z,22.28
2018-07-27T06:32:16.577Z,22.22
2018-07-27T06:33:16.561Z,22.22
2018-07-27T06:34:16.562Z,22.28
2018-07-27T06:35:16.908Z,22.25
2018-07-27T06:36:16.531Z,22.34
2018-07-27T06:37:16.518Z,22.38
2018-07-27T06:38:16.506Z,22.56
2018-07-27T06:39:16.503Z,22.66
2018-07-27T06:40:16.483Z,22.71
2018-07-27T06:41:16.521Z,22.68
2018-07-27T06:42:16.466Z,22.77
2018-07-27T06:43:16.453Z,22.80
2018-07-27T06:44:16.442Z,22.95
2018-07-27T06:45:16.506Z,23.01
2018-07-27T06:46:16.422Z,23.15
2018-07-27T06:47:16.456Z,23.17
2018-07-27T06:48:16.407Z,23.13
2018-07-27T06:49:16.390Z,23.14
2018-07-27T06:50:16.379Z,23.21
2018-07-27T06:51:16.383Z,23.31
2018-07-27T06:52:16.565Z,23.45
2018-07-27T06:53:16.345Z,23.51
2018-07-27T06:54:16.342Z,23.60
2018-07-27T06:55:16.329Z,23.74
2018-07-27T06:56:16.314Z,23.81
2018-07-27T06:57:16.308Z,23.91
2018-07-27T06:58:16.326Z,24.04
2018-07-27T06:59:16.282Z,24.18
2018-07-27T07:00:16.269Z,24.11
2018-07-27T07:01:16.261Z,24.13
2018-07-27T07:02:16.253Z,24.21
2018-07-27T07:03:16.313Z,24.21
2018-07-27T07:04:16.231Z,24.29
2018-07-27T07:05:16.217Z,24.43
2018-07-27T07:06:16.209Z,24.47
2018-07-27T07:07:16.196Z,24.55
2018-07-27T07:08:16.185Z,24.48
2018-07-27T07:09:16.310Z,24.48
2018-07-27T07:10:16.169Z,24.53
2018-07-27T07:11:16.151Z,24.70
2018-07-27T07:12:16.146Z,24.65
2018-07-27T07:13:16.133Z,24.52
2018-07-27T07:14:16.123Z,24.36
2018-07-27T07:15:16.205Z,24.43
2018-07-27T07:16:16.101Z,24.66
2018-07-27T07:17:16.089Z,24.86
2018-07-27T07:18:16.081Z,24.97
2018-07-27T07:19:16.076Z,24.99
2018-07-27T07:20:16.091Z,25.09
2018-07-27T07:21:16.045Z,25.18
2018-07-27T07:22:16.038Z,25.30
2018-07-27T07:23:16.049Z,25.33
2018-07-27T07:24:16.013Z,25.48
2018-07-27T07:25:16.349Z,25.71
2018-07-27T07:26:16.000Z,25.70
2018-07-27T07:27:15.982Z,25.59
2018-07-27T07:28:15.976Z,25.58
2018-07-27T07:29:15.974Z,25.70
2018-07-27T07:30:15.951Z,25.82
2018-07-27T07:31:16.134Z,25.98
2018-07-27T07:32:15.938Z,26.08
2018-07-27T07:33:15.972Z,26.12
2018-07-27T07:34:15.911Z,26.34
2018-07-27T07:35:15.902Z,26.30
2018-07-27T07:36:15.885Z,26.34
2018-07-27T07:37:15.917Z,26.48
2018-07-27T07:38:15.878Z,26.49
2018-07-27T07:39:15.951Z,26.65
2018-07-27T07:40:15.848Z,26.71
2018-07-27T07:41:15.840Z,26.89
2018-07-27T07:42:15.856Z,27.04
2018-07-27T07:43:15.814Z,27.15
2018-07-27T07:44:15.814Z,26.95
2018-07-27T07:45:15.790Z,26.90
2018-07-27T07:46:15.787Z,26.85
2018-07-27T07:47:15.952Z,26.51
2018-07-27T07:48:15.758Z,26.43
2018-07-27T07:49:15.797Z,26.41
2018-07-27T07:50:15.744Z,26.52
2018-07-27T07:51:15.726Z,26.46
2018-07-27T07:52:15.720Z,26.53
2018-07-27T07:53:15.753Z,26.64
2018-07-27T07:54:15.694Z,26.75
2018-07-27T07:55:15.688Z,26.76
2018-07-27T07:56:15.674Z,26.73
2018-07-27T07:57:15.665Z,26.64
2018-07-27T07:58:15.654Z,26.71
2018-07-27T07:59:15.694Z,26.75
2018-07-27T08:00:15.629Z,26.86
2018-07-27T08:01:15.632Z,26.68
2018-07-27T08:02:15.610Z,26.97
2018-07-27T08:03:15.599Z,27.16
2018-07-27T08:04:15.655Z,27.20
2018-07-27T08:05:15.582Z,27.27
2018-07-27T08:06:15.567Z,27.41
2018-07-27T08:07:15.573Z,27.53
2018-07-27T08:08:15.545Z,27.72
2018-07-27T08:09:15.536Z,27.87
2018-07-27T08:10:16.056Z,28.09
2018-07-27T08:11:15.522Z,28.12
2018-07-27T08:12:15.510Z,28.27
2018-07-27T08:13:15.495Z,28.09
2018-07-27T08:14:15.487Z,28.24
2018-07-27T08:15:15.522Z,28.25
2018-07-27T08:16:15.466Z,28.27
2018-07-27T08:17:15.520Z,28.37
2018-07-27T08:18:15.441Z,28.59
2018-07-27T08:19:15.454Z,28.64
2018-07-27T08:20:15.424Z,28.54
2018-07-27T08:21:15.455Z,28.24
2018-07-27T08:22:15.411Z,28.15
2018-07-27T08:23:15.389Z,28.19
2018-07-27T08:24:15.380Z,28.61
2018-07-27T08:25:15.369Z,29.04
2018-07-27T08:26:15.360Z,28.96
2018-07-27T08:27:15.386Z,29.00
2018-07-27T08:28:15.339Z,29.10
2018-07-27T08:29:15.329Z,28.74
2018-07-27T08:30:15.320Z,28.54
2018-07-27T08:31:15.318Z,28.37
2018-07-27T08:32:15.326Z,28.27
2018-07-27T08:33:15.285Z,28.34
2018-07-27T08:34:15.277Z,28.28
2018-07-27T08:35:15.262Z,28.44
2018-07-27T08:36:15.256Z,28.56
2018-07-27T08:37:15.285Z,28.59
2018-07-27T08:38:15.233Z,28.46
2018-07-27T08:39:15.232Z,28.35
2018-07-27T08:40:15.214Z,28.28
2018-07-27T08:41:15.212Z,28.16
2018-07-27T08:42:15.229Z,28.07
2018-07-27T08:43:15.183Z,28.06
2018-07-27T08:44:15.177Z,28.25
2018-07-27T08:45:15.163Z,28.24
2018-07-27T08:46:15.157Z,28.32
2018-07-27T08:47:15.236Z,28.31
2018-07-27T08:48:15.133Z,28.28
2018-07-27T08:49:15.123Z,28.03
2018-07-27T08:50:15.118Z,27.90
2018-07-27T08:51:15.099Z,27.79
2018-07-27T08:52:15.270Z,27.70
2018-07-27T08:53:15.080Z,27.60
2018-07-27T08:54:15.070Z,27.54
2018-07-27T08:55:15.059Z,27.60
2018-07-27T08:56:15.085Z,28.01
2018-07-27T08:57:15.038Z,28.94
2018-07-27T08:58:15.219Z,29.84
2018-07-27T08:59:15.016Z,30.43
2018-07-27T09:00:15.012Z,31.57
2018-07-27T09:01:14.999Z,32.57
2018-07-27T09:02:14.990Z,33.09
2018-07-27T09:03:14.977Z,33.26
2018-07-27T09:04:14.998Z,33.27
2018-07-27T09:05:14.953Z,33.29
2018-07-27T09:06:14.944Z,34.00
2018-07-27T09:07:14.931Z,34.73
2018-07-27T09:08:14.923Z,35.65
2018-07-27T09:09:15.106Z,36.20
2018-07-27T09:10:14.943Z,36.93
2018-07-27T09:11:14.896Z,36.98
2018-07-27T09:12:14.883Z,37.00
2018-07-27T09:13:14.874Z,36.82
2018-07-27T09:14:14.862Z,36.79
2018-07-27T09:15:14.903Z,37.07
2018-07-27T09:16:14.846Z,37.35
2018-07-27T09:17:14.840Z,37.73
2018-07-27T09:18:14.828Z,37.79
2018-07-27T09:19:14.822Z,37.91
2018-07-27T09:20:14.849Z,38.59
2018-07-27T09:21:14.800Z,38.69
2018-07-27T09:22:14.786Z,38.41
2018-07-27T09:23:14.795Z,37.39
2018-07-27T09:24:14.820Z,36.63
2018-07-27T09:25:15.090Z,36.48
2018-07-27T09:26:14.937Z,36.20
2018-07-27T09:27:14.741Z,35.81
2018-07-27T09:28:14.731Z,35.70
2018-07-27T09:29:14.732Z,35.90
2018-07-27T09:30:14.712Z,36.56
2018-07-27T09:31:14.708Z,36.02
2018-07-27T09:32:14.732Z,35.57
2018-07-27T09:33:14.687Z,35.38
2018-07-27T09:34:14.731Z,35.83
2018-07-27T09:35:14.721Z,36.03
2018-07-27T09:36:14.658Z,36.19
2018-07-27T09:37:14.692Z,36.03
2018-07-27T09:38:14.646Z,35.97
2018-07-27T09:39:14.637Z,36.22
2018-07-27T09:40:14.621Z,35.76
2018-07-27T09:41:14.615Z,34.85
2018-07-27T09:42:14.602Z,34.23
2018-07-27T09:43:14.729Z,33.70
2018-07-27T09:44:14.641Z,33.20
2018-07-27T09:45:14.576Z,33.14
2018-07-27T09:46:14.568Z,34.64
2018-07-27T09:47:14.553Z,36.33
2018-07-27T09:48:14.548Z,37.65
2018-07-27T09:49:14.578Z,38.82
2018-07-27T09:50:14.578Z,39.54
2018-07-27T09:51:14.518Z,40.28
2018-07-27T09:52:14.526Z,40.52
2018-07-27T09:53:14.503Z,40.80
2018-07-27T09:54:14.524Z,40.55
2018-07-27T09:55:14.491Z,41.06
2018-07-27T09:56:14.475Z,41.12
2018-07-27T09:57:14.464Z,40.96
2018-07-27T09:58:14.465Z,40.94
2018-07-27T09:59:14.633Z,41.13
2018-07-27T10:00:14.436Z,41.47
2018-07-27T10:01:14.436Z,42.25
2018-07-27T10:02:14.426Z,42.76
2018-07-27T10:03:14.414Z,42.25
2018-07-27T10:04:14.410Z,41.77
2018-07-27T10:05:14.472Z,40.96
2018-07-27T10:06:14.393Z,41.66
2018-07-27T10:07:14.381Z,42.34
2018-07-27T10:08:14.374Z,42.83
2018-07-27T10:09:14.363Z,43.33
2018-07-27T10:10:14.355Z,43.57
2018-07-27T10:11:14.383Z,43.82
2018-07-27T10:12:14.351Z,43.73
2018-07-27T10:13:14.334Z,43.49
2018-07-27T10:14:14.322Z,42.65
2018-07-27T10:15:14.323Z,42.49
2018-07-27T10:16:14.497Z,42.35
2018-07-27T10:17:14.302Z,41.96
2018-07-27T10:18:14.296Z,40.83
2018-07-27T10:19:14.297Z,40.59
2018-07-27T10:20:14.274Z,40.49
2018-07-27T10:21:14.271Z,40.75
2018-07-27T10:22:14.299Z,41.05
2018-07-27T10:23:14.255Z,41.06
2018-07-27T10:24:14.268Z,41.40
2018-07-27T10:25:14.244Z,41.68
2018-07-27T10:26:14.236Z,42.13
2018-07-27T10:27:14.420Z,42.93
2018-07-27T10:28:14.221Z,43.59
2018-07-27T10:29:14.210Z,43.83
2018-07-27T10:30:14.201Z,44.48
2018-07-27T10:31:14.248Z,45.02
2018-07-27T10:32:14.195Z,45.11
2018-07-27T10:33:14.391Z,44.73
2018-07-27T10:34:14.198Z,43.92
2018-07-27T10:35:14.166Z,43.17
2018-07-27T10:36:14.172Z,42.25
2018-07-27T10:37:14.173Z,42.07
2018-07-27T10:38:14.144Z,42.53
2018-07-27T10:39:14.180Z,42.60
2018-07-27T10:40:14.141Z,42.81
2018-07-27T10:41:14.120Z,42.72
2018-07-27T10:42:14.117Z,42.65
2018-07-27T10:43:14.118Z,42.38
2018-07-27T10:44:14.294Z,42.65
2018-07-27T10:45:14.117Z,42.23
2018-07-27T10:46:14.089Z,41.94
2018-07-27T10:47:14.083Z,41.39
2018-07-27T10:48:14.151Z,42.06
2018-07-27T10:49:14.068Z,42.72
2018-07-27T10:50:14.275Z,43.26
2018-07-27T10:51:14.063Z,43.63
2018-07-27T10:52:14.046Z,44.13
2018-07-27T10:53:14.037Z,44.41
2018-07-27T10:54:14.031Z,44.32
2018-07-27T10:55:14.036Z,43.73
2018-07-27T10:56:14.049Z,44.10
2018-07-27T10:57:14.012Z,44.71
2018-07-27T10:58:14.017Z,45.11
2018-07-27T10:59:14.001Z,45.71
2018-07-27T11:00:13.988Z,45.77
2018-07-27T11:01:14.346Z,45.46
2018-07-27T11:02:13.979Z,44.42
2018-07-27T11:03:13.984Z,43.74
2018-07-27T11:04:13.962Z,43.95
2018-07-27T11:05:13.954Z,44.17
2018-07-27T11:06:13.956Z,44.86
2018-07-27T11:07:15.260Z,45.24
2018-07-27T11:08:13.939Z,45.64
2018-07-27T11:09:13.929Z,46.05
2018-07-27T11:10:13.927Z,46.03
2018-07-27T11:11:13.916Z,46.03
2018-07-27T11:12:13.953Z,45.90
2018-07-27T11:13:14.008Z,45.29
2018-07-27T11:14:13.899Z,44.23
2018-07-27T11:15:13.915Z,43.79
2018-07-27T11:16:13.965Z,43.12
2018-07-27T11:17:13.909Z,43.23
2018-07-27T11:18:13.901Z,42.11
2018-07-27T11:19:13.861Z,41.96
2018-07-27T11:20:13.852Z,42.67
2018-07-27T11:21:13.852Z,43.35
2018-07-27T11:22:13.854Z,43.42
2018-07-27T11:23:14.029Z,43.85
2018-07-27T11:24:13.832Z,44.39
2018-07-27T11:25:13.835Z,44.77
2018-07-27T11:26:13.822Z,45.00
2018-07-27T11:27:13.820Z,45.45
2018-07-27T11:28:13.799Z,45.94
2018-07-27T11:29:13.855Z,46.11
2018-07-27T11:30:13.785Z,44.99
2018-07-27T11:31:13.786Z,45.05
2018-07-27T11:32:13.884Z,45.15
2018-07-27T11:33:13.770Z,45.19
2018-07-27T11:34:14.145Z,44.65
2018-07-27T11:35:13.853Z,44.96
2018-07-27T11:36:13.765Z,45.12
2018-07-27T11:37:13.895Z,44.66
2018-07-27T11:38:13.738Z,44.46
2018-07-27T11:39:13.727Z,42.67
2018-07-27T11:40:13.786Z,43.12
2018-07-27T11:41:13.718Z,43.86
2018-07-27T11:42:13.743Z,44.26
2018-07-27T11:43:13.711Z,44.65
2018-07-27T11:44:13.692Z,45.08
2018-07-27T11:45:13.823Z,45.38
2018-07-27T11:46:13.683Z,44.65
2018-07-27T11:47:13.671Z,44.41
2018-07-27T11:48:13.670Z,44.01
2018-07-27T11:49:13.751Z,42.98
2018-07-27T11:50:13.650Z,42.60
2018-07-27T11:51:13.682Z,41.92
2018-07-27T11:52:13.641Z,41.96
2018-07-27T11:53:13.639Z,41.54
2018-07-27T11:54:13.625Z,41.12
2018-07-27T11:55:13.620Z,41.54
2018-07-27T11:56:13.653Z,41.54
2018-07-27T11:57:13.603Z,40.82
2018-07-27T11:58:13.596Z,40.71
2018-07-27T11:59:13.595Z,41.21
2018-07-27T12:00:13.601Z,42.22
2018-07-27T12:01:13.634Z,42.88
2018-07-27T12:02:13.769Z,43.86
2018-07-27T12:03:13.567Z,43.83
2018-07-27T12:04:13.556Z,44.00
2018-07-27T12:05:13.546Z,44.22
2018-07-27T12:06:13.540Z,44.39
2018-07-27T12:07:13.686Z,44.41
2018-07-27T12:08:13.564Z,44.24
2018-07-27T12:09:13.554Z,43.82
2018-07-27T12:10:13.524Z,43.48
2018-07-27T12:11:13.521Z,43.00
2018-07-27T12:12:13.524Z,42.67
2018-07-27T12:13:13.551Z,42.74
2018-07-27T12:14:13.656Z,42.63
2018-07-27T12:15:13.816Z,42.88
2018-07-27T12:16:13.470Z,43.05
2018-07-27T12:17:13.471Z,43.42
2018-07-27T12:18:13.492Z,43.74
2018-07-27T12:19:13.546Z,43.64
2018-07-27T12:20:13.441Z,42.93
2018-07-27T12:21:13.576Z,42.65
2018-07-27T12:22:13.460Z,41.97
2018-07-27T12:23:13.424Z,42.40
2018-07-27T12:24:13.559Z,42.79
2018-07-27T12:25:13.407Z,42.26
2018-07-27T12:26:13.406Z,41.66
2018-07-27T12:27:13.405Z,40.16
2018-07-27T12:28:13.386Z,39.91
2018-07-27T12:29:13.376Z,40.08
2018-07-27T12:30:13.409Z,39.80
2018-07-27T12:31:13.361Z,39.58
2018-07-27T12:32:13.358Z,39.82
2018-07-27T12:33:14.014Z,39.24
2018-07-27T12:34:13.341Z,39.57
2018-07-27T12:35:13.336Z,39.83
2018-07-27T12:36:13.381Z,39.77
2018-07-27T12:37:13.331Z,39.77
2018-07-27T12:38:13.321Z,40.33
2018-07-27T12:39:13.435Z,40.65
2018-07-27T12:40:13.300Z,40.67
2018-07-27T12:41:13.563Z,40.55
2018-07-27T12:42:13.303Z,40.74
2018-07-27T12:43:13.280Z,40.92
2018-07-27T12:44:13.277Z,40.94
2018-07-27T12:45:13.269Z,40.99
2018-07-27T12:46:13.255Z,41.20
2018-07-27T12:47:13.288Z,41.62
2018-07-27T12:48:13.255Z,42.22
2018-07-27T12:49:13.236Z,41.30
2018-07-27T12:50:13.230Z,39.17
2018-07-27T12:51:13.286Z,38.10
2018-07-27T12:52:13.395Z,38.64